| time (UTC) | temp C | wind direction | speed KPH | gust KPH | rain 1hr cm | rain 24hr cm | rain mn cm | humidity % | barometer mb |
| 20260906163046 | 22 | 207 | 4.8 | 11.3 | 0.00 | 0.00 | 0.00 | 71 | 1019.4 |
| 20260906161540 | 22 | 225 | 1.6 | 9.7 | 0.00 | 0.00 | 0.00 | 71 | 1019.5 |
| 20260906160039 | 22 | 208 | 6.4 | 12.9 | 0.00 | 0.00 | 0.00 | 71 | 1019.4 |
| 20260906154537 | 22 | 218 | 4.8 | 11.3 | 0.00 | 0.00 | 0.00 | 72 | 1019.5 |
| 20260906153039 | 22 | 205 | 3.2 | 11.3 | 0.00 | 0.00 | 0.00 | 71 | 1019.4 |
| 20260906151534 | 22 | 158 | 6.4 | 11.3 | 0.00 | 0.00 | 0.00 | 71 | 1019.3 |
| 20260906150032 | 22 | 218 | 4.8 | 9.7 | 0.00 | 0.00 | 0.00 | 73 | 1019.4 |
| 20260906144535 | 22 | 222 | 8.0 | 14.5 | 0.00 | 0.00 | 0.00 | 72 | 1019.0 |
| 20260906143028 | 22 | 146 | 3.2 | 11.3 | 0.00 | 0.00 | 0.00 | 73 | 1018.9 |
| 20260906141626 | 21 | 226 | 4.8 | 12.9 | 0.00 | 0.00 | 0.00 | 73 | 1018.9 |
| 20260906140031 | 21 | 154 | 6.4 | 12.9 | 0.00 | 0.00 | 0.00 | 74 | 1018.9 |
| 20260906134527 | 20 | 179 | 6.4 | 14.5 | 0.00 | 0.00 | 0.00 | 75 | 1019.0 |
| 20260906133021 | 20 | 178 | 4.8 | 12.9 | 0.00 | 0.00 | 0.00 | 77 | 1019.0 |
| 20260906131518 | 20 | 172 | 6.4 | 12.9 | 0.00 | 0.00 | 0.00 | 77 | 1018.7 |
| 20260906130020 | 20 | 132 | 4.8 | 11.3 | 0.00 | 0.00 | 0.00 | 77 | 1018.7 |
| 20260906124521 | 20 | 122 | 3.2 | 8.0 | 0.00 | 0.00 | 0.00 | 77 | 1018.6 |
| 20260906123016 | 20 | 115 | 1.6 | 4.8 | 0.00 | 0.00 | 0.00 | 77 | 1018.6 |
| 20260906121512 | 19 | 122 | 0.0 | 4.8 | 0.00 | 0.00 | 0.00 | 78 | 1018.5 |
| 20260906120009 | 19 | 131 | 1.6 | 6.4 | 0.00 | 0.00 | 0.00 | 77 | 1018.4 |
| 20260906114507 | 20 | 143 | 1.6 | 4.8 | 0.00 | 0.00 | 0.00 | 77 | 1018.3 |
| 20260906113008 | 20 | 130 | 1.6 | 4.8 | 0.00 | 0.00 | 0.00 | 77 | 1018.2 |
| 20260906111508 | 20 | 129 | 0.0 | 3.2 | 0.00 | 0.00 | 0.00 | 77 | 1018.1 |
| 20260906110002 | 20 | 185 | 3.2 | 9.7 | 0.00 | 0.00 | 0.00 | 77 | 1018.1 |
| 20260906104601 | 20 | 80 | 4.8 | 12.9 | 0.00 | 0.00 | 0.00 | 77 | 1017.9 |
| 20260906103059 | 19 | 185 | 6.4 | 12.9 | 0.00 | 0.00 | 0.00 | 78 | 1017.7 |
| 20260906101557 | 19 | 205 | 3.2 | 9.7 | 0.00 | 0.00 | 0.00 | 78 | 1017.5 |
| 20260906100058 | 19 | 193 | 4.8 | 9.7 | 0.00 | 0.00 | 0.00 | 78 | 1017.1 |
| 20260906094605 | 19 | 139 | 3.2 | 11.3 | 0.00 | 0.00 | 0.00 | 77 | 1017.1 |
| 20260906093052 | 19 | 160 | 4.8 | 8.0 | 0.00 | 0.00 | 0.00 | 77 | 1017.1 |
| 20260906091602 | 20 | 201 | 3.2 | 6.4 | 0.00 | 0.00 | 0.00 | 77 | 1017.1 |
| 20260906090049 | 20 | 169 | 1.6 | 6.4 | 0.00 | 0.00 | 0.00 | 77 | 1017.1 |
| 20260906084547 | 20 | 199 | 6.4 | 12.9 | 0.00 | 0.00 | 0.00 | 76 | 1016.7 |
| 20260906083043 | 20 | 192 | 6.4 | 11.3 | 0.00 | 0.00 | 0.00 | 77 | 1016.8 |
| 20260906081543 | 20 | 129 | 1.6 | 9.7 | 0.00 | 0.00 | 0.00 | 77 | 1017.2 |
| 20260906080041 | 21 | 165 | 3.2 | 6.4 | 0.00 | 0.00 | 0.00 | 77 | 1017.2 |
| 20260906074545 | 21 | 207 | 3.2 | 6.4 | 0.00 | 0.00 | 0.00 | 76 | 1017.2 |
| 20260906073033 | 21 | 175 | 1.6 | 8.0 | 0.00 | 0.00 | 0.00 | 76 | 1017.3 |
| 20260906071532 | 21 | 202 | 3.2 | 6.4 | 0.00 | 0.00 | 0.00 | 76 | 1017.3 |
| 20260906070030 | 21 | 136 | 1.6 | 6.4 | 0.00 | 0.00 | 0.00 | 76 | 1017.5 |
| 20260906064529 | 21 | 169 | 3.2 | 9.7 | 0.00 | 0.00 | 0.00 | 76 | 1017.4 |
| 20260906063028 | 22 | 143 | 3.2 | 11.3 | 0.00 | 0.00 | 0.00 | 75 | 1017.4 |
| 20260906061525 | 22 | 153 | 3.2 | 12.9 | 0.00 | 0.00 | 0.00 | 75 | 1017.4 |
| 20260906060022 | 22 | 188 | 6.4 | 12.9 | 0.00 | 0.00 | 0.00 | 75 | 1017.2 |
| 20260906054520 | 22 | 86 | 8.0 | 12.9 | 0.00 | 0.00 | 0.00 | 75 | 1017.4 |
| 20260906053019 | 22 | 108 | 4.8 | 11.3 | 0.00 | 0.00 | 0.00 | 75 | 1017.1 |
| 20260906051517 | 22 | 96 | 8.0 | 11.3 | 0.00 | 0.00 | 0.00 | 75 | 1017.3 |
| 20260906050014 | 22 | 78 | 3.2 | 8.0 | 0.00 | 0.00 | 0.00 | 76 | 1017.1 |
| 20260906044512 | 22 | 101 | 4.8 | 8.0 | 0.00 | 0.00 | 0.00 | 76 | 1017.3 |
| 20260906043020 | 22 | 92 | 3.2 | 8.0 | 0.00 | 0.00 | 0.00 | 77 | 1017.1 |
| 20260906041509 | 21 | 119 | 3.2 | 6.4 | 0.00 | 0.00 | 0.00 | 77 | 1017.1 |
| 20260906040009 | 22 | 88 | 0.0 | 0.0 | 0.00 | 0.00 | 0.00 | 76 | 1017.0 |
| 20260906034505 | 22 | 88 | 0.0 | 1.6 | 0.00 | 0.00 | 0.00 | 76 | 1017.0 |
| 20260906033007 | 22 | 88 | 0.0 | 0.0 | 0.00 | 0.00 | 0.00 | 76 | 1016.8 |
| 20260906031501 | 22 | 88 | 0.0 | 1.6 | 0.00 | 0.00 | 0.00 | 76 | 1016.8 |
| 20260906030100 | 22 | 88 | 1.6 | 4.8 | 0.00 | 0.00 | 0.00 | 76 | 1016.9 |
| 20260906024558 | 22 | 105 | 0.0 | 0.0 | 0.00 | 0.00 | 0.00 | 76 | 1016.5 |
| 20260906023056 | 22 | 105 | 0.0 | 0.0 | 0.00 | 0.00 | 0.00 | 76 | 1016.2 |
| 20260906021550 | 22 | 105 | 0.0 | 0.0 | 0.00 | 0.00 | 0.00 | 76 | 1016.0 |
| 20260906020103 | 22 | 105 | 0.0 | 1.6 | 0.00 | 0.00 | 0.00 | 75 | 1015.8 |
| 20260906014548 | 23 | 105 | 0.0 | 1.6 | 0.00 | 0.00 | 0.00 | 74 | 1015.5 |
| 20260906013057 | 23 | 205 | 0.0 | 4.8 | 0.00 | 0.00 | 0.00 | 74 | 1015.3 |
| 20260906011559 | 23 | 129 | 1.6 | 9.7 | 0.00 | 0.00 | 0.00 | 73 | 1015.4 |
| 20260906010045 | 23 | 110 | 3.2 | 8.0 | 0.00 | 0.00 | 0.00 | 73 | 1015.1 |
| 20260906004543 | 24 | 136 | 8.0 | 12.9 | 0.00 | 0.00 | 0.00 | 73 | 1015.3 |
| 20260906003040 | 24 | 136 | 4.8 | 11.3 | 0.00 | 0.00 | 0.00 | 72 | 1015.1 |
| 20260906001540 | 25 | 138 | 4.8 | 11.3 | 0.00 | 0.00 | 0.00 | 71 | 1015.1 |
| 20260906000050 | 26 | 118 | 3.2 | 9.7 | 0.00 | 0.00 | 0.00 | 69 | 1015.0 |
| 20260905234534 | 26 | 143 | 4.8 | 12.9 | 0.00 | 0.00 | 0.00 | 67 | 1015.1 |
| 20260905233035 | 27 | 139 | 3.2 | 6.4 | 0.00 | 0.00 | 0.00 | 65 | 1015.1 |
| 20260905231529 | 27 | 121 | 4.8 | 12.9 | 0.00 | 0.00 | 0.00 | 65 | 1015.0 |
| 20260905230024 | 27 | 107 | 8.0 | 17.7 | 0.00 | 0.00 | 0.00 | 64 | 1014.8 |
| 20260905224522 | 27 | 105 | 14.5 | 20.9 | 0.00 | 0.00 | 0.00 | 63 | 1014.9 |
| 20260905223019 | 27 | 103 | 12.9 | 19.3 | 0.00 | 0.00 | 0.00 | 64 | 1014.9 |
| 20260905221516 | 27 | 108 | 11.3 | 20.9 | 0.00 | 0.00 | 0.00 | 64 | 1014.9 |
| 20260905220014 | 27 | 72 | 11.3 | 20.9 | 0.00 | 0.00 | 0.00 | 65 | 1014.9 |
| 20260905214517 | 28 | 136 | 9.7 | 20.9 | 0.00 | 0.00 | 0.00 | 66 | 1014.9 |
| 20260905213012 | 28 | 114 | 12.9 | 20.9 | 0.00 | 0.00 | 0.00 | 64 | 1015.0 |
| 20260905211509 | 28 | 87 | 11.3 | 17.7 | 0.00 | 0.00 | 0.00 | 65 | 1015.0 |
| 20260905210007 | 29 | 95 | 12.9 | 19.3 | 0.00 | 0.00 | 0.00 | 63 | 1014.9 |
| 20260905204508 | 29 | 99 | 11.3 | 19.3 | 0.00 | 0.00 | 0.00 | 63 | 1015.0 |
| 20260905203004 | 29 | 110 | 12.9 | 17.7 | 0.00 | 0.00 | 0.00 | 64 | 1014.9 |
| 20260905201508 | 29 | 76 | 12.9 | 25.7 | 0.00 | 0.00 | 0.00 | 64 | 1014.7 |
| 20260905200001 | 30 | 85 | 9.7 | 20.9 | 0.00 | 0.00 | 0.00 | 63 | 1014.8 |
| 20260905194610 | 30 | 95 | 11.3 | 17.7 | 0.00 | 0.00 | 0.00 | 64 | 1015.2 |
| 20260905193057 | 30 | 113 | 9.7 | 14.5 | 0.00 | 0.00 | 0.00 | 63 | 1015.4 |
| 20260905191558 | 30 | 79 | 9.7 | 14.5 | 0.00 | 0.00 | 0.00 | 63 | 1015.5 |
| 20260905190053 | 30 | 103 | 9.7 | 14.5 | 0.00 | 0.00 | 0.00 | 64 | 1015.5 |
| 20260905184611 | 30 | 82 | 3.2 | 14.5 | 0.00 | 0.00 | 0.00 | 65 | 1015.6 |
| 20260905183052 | 30 | 94 | 6.4 | 12.9 | 0.00 | 0.00 | 0.00 | 65 | 1015.5 |
| 20260905181556 | 30 | 134 | 6.4 | 12.9 | 0.00 | 0.00 | 0.00 | 65 | 1015.5 |
| 20260905180050 | 30 | 101 | 8.0 | 14.5 | 0.00 | 0.00 | 0.00 | 65 | 1015.4 |
| 20260905174546 | 30 | 126 | 6.4 | 11.3 | 0.00 | 0.00 | 0.00 | 65 | 1015.5 |
| 20260905173042 | 30 | 148 | 6.4 | 12.9 | 0.00 | 0.00 | 0.00 | 65 | 1015.6 |
| 20260905171542 | 30 | 82 | 9.7 | 16.1 | 0.00 | 0.00 | 0.00 | 65 | 1015.6 |
| 20260905170039 | 30 | 106 | 6.4 | 14.5 | 0.00 | 0.00 | 0.00 | 65 | 1015.7 |
| 20260905164536 | 29 | 147 | 4.8 | 14.5 | 0.00 | 0.00 | 0.00 | 66 | 1015.9 |